Time;durP1;ratioP1;P1;durP2;ratioP2;P2;SDS_P1;SDS_P2;PMS_P1;PMS_P2;Temp;Humidity;BMP_temperature;BMP_pressure;BME280_temperature;BME280_humidity;BME280_pressure;Samples;Min_cycle;Max_cycle;Signal;HPM_P1;HPM_P2
2023/06/14 00:00:25;;;;;;;2.50;2.08;;;13.50;61.50;;;;;;5046804;28;20573;-45
2023/06/14 00:02:55;;;;;;;2.60;1.70;;;13.50;61.40;;;;;;5041103;28;20243;-45
2023/06/14 00:05:26;;;;;;;2.92;1.70;;;13.50;61.40;;;;;;5048205;28;20246;-44
2023/06/14 00:08:00;;;;;;;2.33;1.50;;;13.50;61.30;;;;;;5048794;28;20238;-44
2023/06/14 00:10:31;;;;;;;2.03;1.55;;;13.50;61.30;;;;;;5047241;28;20196;-45
2023/06/14 00:13:02;;;;;;;2.75;1.55;;;13.50;61.30;;;;;;5050433;28;20616;-46
2023/06/14 00:15:34;;;;;;;4.30;1.90;;;13.60;61.50;;;;;;5047490;28;20200;-44
2023/06/14 00:18:05;;;;;;;1.98;1.60;;;13.60;61.70;;;;;;5049045;28;20208;-45
2023/06/14 00:20:37;;;;;;;1.85;1.42;;;13.60;61.70;;;;;;5039770;28;20200;-44
2023/06/14 00:23:07;;;;;;;2.33;1.40;;;13.60;62.50;;;;;;5035106;28;20195;-44
2023/06/14 00:25:38;;;;;;;2.92;1.48;;;13.60;61.80;;;;;;5046524;28;20653;-46
2023/06/14 00:28:09;;;;;;;2.33;1.50;;;13.70;61.90;;;;;;5049954;28;20699;-44
2023/06/14 00:30:41;;;;;;;2.10;1.50;;;13.70;61.90;;;;;;5046377;28;20663;-44
2023/06/14 00:33:12;;;;;;;2.25;1.60;;;13.70;62.00;;;;;;5050503;28;20206;-45
2023/06/14 00:35:42;;;;;;;1.90;1.40;;;13.70;62.00;;;;;;5044836;28;20215;-46
2023/06/14 00:38:13;;;;;;;1.83;1.55;;;13.70;62.00;;;;;;5048558;28;20214;-46
2023/06/14 00:40:44;;;;;;;2.38;1.70;;;13.80;61.90;;;;;;5046947;28;20192;-44
2023/06/14 00:43:15;;;;;;;2.65;1.55;;;13.80;61.80;;;;;;5048065;28;20202;-45
2023/06/14 00:45:49;;;;;;;2.25;1.48;;;13.80;61.80;;;;;;5039050;28;20231;-46
2023/06/14 00:48:20;;;;;;;1.50;1.20;;;13.80;61.80;;;;;;5048594;28;20237;-45
2023/06/14 00:50:53;;;;;;;2.05;1.60;;;13.90;62.10;;;;;;5039314;28;20192;-45
2023/06/14 00:53:25;;;;;;;1.70;1.45;;;13.90;62.40;;;;;;5049030;28;20207;-45
2023/06/14 00:55:55;;;;;;;2.30;1.65;;;13.90;62.50;;;;;;5047458;28;20216;-44
2023/06/14 00:58:26;;;;;;;2.28;1.35;;;13.90;62.50;;;;;;5049878;28;20199;-47
2023/06/14 01:00:59;;;;;;;1.55;1.27;;;13.90;62.50;;;;;;5048212;28;20196;-46
2023/06/14 01:03:30;;;;;;;2.03;1.50;;;14.00;63.30;;;;;;5049917;28;20206;-44
2023/06/14 01:06:11;;;;;;;3.20;1.48;;;14.00;62.50;;;;;;5035807;28;20751;-45
2023/06/14 01:08:51;;;;;;;2.00;1.20;;;14.00;62.40;;;;;;5032103;28;20270;-45
2023/06/14 01:11:29;;;;;;;2.17;1.40;;;14.00;62.30;;;;;;5042111;28;20195;-46
2023/06/14 01:14:02;;;;;;;1.63;1.30;;;14.00;62.30;;;;;;5043035;28;20214;-46
2023/06/14 01:16:36;;;;;;;1.83;1.10;;;14.10;62.30;;;;;;5042169;28;20242;-44
2023/06/14 01:19:08;;;;;;;2.55;1.40;;;14.10;62.10;;;;;;5036203;28;20207;-44
2023/06/14 01:21:41;;;;;;;1.40;1.30;;;14.10;62.20;;;;;;5041683;28;20191;-44
2023/06/14 01:24:14;;;;;;;2.10;1.38;;;14.10;62.10;;;;;;5043415;28;20192;-46
2023/06/14 01:26:45;;;;;;;2.00;1.33;;;14.10;62.00;;;;;;5039103;28;20687;-45
2023/06/14 01:29:18;;;;;;;1.75;1.50;;;14.20;62.30;;;;;;5050169;28;20319;-45
2023/06/14 01:31:49;;;;;;;3.15;1.52;;;14.20;62.40;;;;;;5042651;28;20682;-46
2023/06/14 01:34:20;;;;;;;1.85;1.48;;;14.20;62.40;;;;;;5049855;28;20210;-44
2023/06/14 01:36:52;;;;;;;2.47;1.50;;;14.20;62.40;;;;;;5042413;28;20238;-46
2023/06/14 01:39:25;;;;;;;1.98;1.48;;;14.30;62.40;;;;;;5049126;28;20218;-44
2023/06/14 01:41:57;;;;;;;1.88;1.40;;;14.30;62.30;;;;;;5035482;28;20302;-45
2023/06/14 01:44:29;;;;;;;1.67;1.40;;;14.30;62.20;;;;;;5049659;28;20567;-44
2023/06/14 01:47:01;;;;;;;1.30;1.10;;;14.40;62.10;;;;;;5042936;28;20239;-44
2023/06/14 01:49:31;;;;;;;1.25;1.15;;;14.30;62.00;;;;;;5047843;28;20231;-45
2023/06/14 01:52:02;;;;;;;1.48;1.10;;;14.40;62.00;;;;;;5043078;28;20350;-47
2023/06/14 01:54:34;;;;;;;1.50;1.30;;;14.40;62.00;;;;;;5042573;28;20198;-45
2023/06/14 01:57:06;;;;;;;1.77;1.40;;;14.40;61.90;;;;;;5038360;28;20215;-45
2023/06/14 01:59:37;;;;;;;1.88;1.30;;;14.50;61.90;;;;;;5039545;28;20199;-46
2023/06/14 02:02:08;;;;;;;1.98;1.40;;;14.50;61.90;;;;;;5041180;28;20204;-44
2023/06/14 02:04:38;;;;;;;3.70;1.40;;;14.50;61.90;;;;;;5050058;28;20211;-44
2023/06/14 02:07:09;;;;;;;1.25;1.00;;;14.50;61.90;;;;;;5048037;28;20695;-44
2023/06/14 02:09:43;;;;;;;1.67;1.23;;;14.50;61.80;;;;;;5051598;28;20267;-44
2023/06/14 02:12:13;;;;;;;1.50;1.40;;;14.50;61.80;;;;;;5047642;28;20195;-45
2023/06/14 02:14:44;;;;;;;1.58;1.23;;;14.60;61.80;;;;;;5050343;28;20561;-44
2023/06/14 02:17:15;;;;;;;2.05;1.40;;;14.60;61.80;;;;;;5045789;28;20257;-44
2023/06/14 02:19:46;;;;;;;1.60;1.17;;;14.60;61.80;;;;;;5049839;28;20317;-44
2023/06/14 02:22:17;;;;;;;1.65;1.20;;;14.60;61.80;;;;;;5042679;28;20210;-44
2023/06/14 02:24:50;;;;;;;1.50;1.40;;;14.60;61.70;;;;;;5048008;28;20199;-47
2023/06/14 02:27:20;;;;;;;1.38;1.10;;;14.70;61.90;;;;;;5046932;28;20211;-44
2023/06/14 02:29:51;;;;;;;2.08;1.38;;;14.70;61.80;;;;;;5052013;28;20566;-44
2023/06/14 02:32:22;;;;;;;1.52;1.20;;;14.70;61.80;;;;;;5048398;28;20660;-44
2023/06/14 02:34:53;;;;;;;1.75;1.48;;;14.80;61.90;;;;;;5050494;28;20206;-44
2023/06/14 02:37:23;;;;;;;1.92;1.40;;;14.80;61.90;;;;;;5035553;28;20224;-45
2023/06/14 02:39:56;;;;;;;1.48;1.20;;;14.80;61.90;;;;;;5044823;28;20200;-44
2023/06/14 02:42:27;;;;;;;2.42;1.20;;;14.80;61.80;;;;;;5047348;28;20202;-44
2023/06/14 02:44:57;;;;;;;1.90;1.40;;;14.90;61.90;;;;;;5040239;28;20197;-44
2023/06/14 02:47:28;;;;;;;1.80;1.10;;;14.90;61.80;;;;;;5032231;28;20212;-44
2023/06/14 02:49:58;;;;;;;2.00;1.15;;;14.90;61.80;;;;;;5050457;28;20230;-45
2023/06/14 02:52:29;;;;;;;2.10;1.15;;;14.90;61.80;;;;;;5046365;28;20195;-44
2023/06/14 02:55:02;;;;;;;1.45;1.08;;;15.00;61.90;;;;;;5048910;28;20207;-44
2023/06/14 02:57:32;;;;;;;1.45;1.23;;;15.00;62.00;;;;;;5044980;28;20222;-46
2023/06/14 03:00:03;;;;;;;2.35;1.23;;;15.00;62.00;;;;;;5051608;28;20200;-45
2023/06/14 03:02:34;;;;;;;2.20;1.10;;;15.10;62.00;;;;;;5050148;28;20195;-45
2023/06/14 03:05:06;;;;;;;1.80;1.20;;;15.10;61.90;;;;;;5051718;28;20206;-46
2023/06/14 03:07:40;;;;;;;1.80;1.15;;;15.10;62.10;;;;;;5032615;28;20629;-46
2023/06/14 03:10:14;;;;;;;1.05;0.95;;;15.10;62.10;;;;;;5031181;28;20225;-45
2023/06/14 03:12:44;;;;;;;2.15;1.30;;;15.10;62.10;;;;;;5047622;28;20192;-45
2023/06/14 03:15:15;;;;;;;2.10;1.30;;;15.20;62.10;;;;;;5051387;28;20195;-44
2023/06/14 03:17:49;;;;;;;1.27;1.00;;;15.20;62.10;;;;;;5047790;28;20219;-45
2023/06/14 03:20:19;;;;;;;1.10;1.00;;;15.20;62.10;;;;;;5043003;28;20195;-46
2023/06/14 03:22:50;;;;;;;1.65;1.10;;;15.20;62.00;;;;;;5050184;28;20203;-44
2023/06/14 03:25:22;;;;;;;1.13;1.00;;;15.30;62.10;;;;;;5051666;28;20574;-44
2023/06/14 03:27:53;;;;;;;2.10;1.20;;;15.30;62.10;;;;;;5041846;28;20207;-45
2023/06/14 03:30:24;;;;;;;2.38;1.40;;;15.30;62.10;;;;;;5051108;28;20565;-44
2023/06/14 03:33:02;;;;;;;1.33;1.00;;;15.30;62.00;;;;;;5051087;28;20204;-45
2023/06/14 03:35:32;;;;;;;1.13;0.90;;;15.40;62.00;;;;;;5050448;28;20260;-45
2023/06/14 03:38:04;;;;;;;1.52;1.05;;;15.40;61.90;;;;;;5042343;28;20199;-44
2023/06/14 03:40:36;;;;;;;1.00;0.90;;;15.50;61.90;;;;;;5050462;28;20300;-44
2023/06/14 03:43:07;;;;;;;0.90;0.90;;;15.40;61.70;;;;;;5043643;28;20196;-45
2023/06/14 03:45:37;;;;;;;2.88;1.60;;;15.50;61.70;;;;;;5038986;28;20195;-44
2023/06/14 03:48:08;;;;;;;1.38;1.25;;;15.50;61.70;;;;;;5041916;28;20200;-47
2023/06/14 03:50:40;;;;;;;2.03;1.00;;;15.50;61.60;;;;;;5050466;28;20208;-45
2023/06/14 03:53:11;;;;;;;1.85;0.90;;;15.60;61.60;;;;;;5034110;28;20441;-45
2023/06/14 03:55:43;;;;;;;1.23;1.08;;;15.60;61.50;;;;;;5044396;28;20261;-45
2023/06/14 03:58:14;;;;;;;1.85;1.20;;;15.60;61.50;;;;;;5038325;28;20215;-46
2023/06/14 04:00:45;;;;;;;1.52;0.93;;;15.70;61.50;;;;;;5046915;28;20234;-46
2023/06/14 04:03:16;;;;;;;1.73;1.10;;;15.70;61.50;;;;;;5037847;28;20588;-45
2023/06/14 04:05:49;;;;;;;1.35;0.90;;;15.70;61.50;;;;;;5041073;28;20216;-45
2023/06/14 04:08:19;;;;;;;3.38;1.48;;;15.70;61.40;;;;;;5035367;28;20202;-45
2023/06/14 04:10:52;;;;;;;1.17;1.00;;;15.80;61.40;;;;;;5043539;28;20195;-44
2023/06/14 04:13:23;;;;;;;1.63;1.10;;;15.80;61.30;;;;;;5037288;28;20562;-46
2023/06/14 04:15:53;;;;;;;1.58;1.10;;;15.80;61.20;;;;;;5033268;28;20714;-45
2023/06/14 04:18:24;;;;;;;1.55;1.05;;;15.80;61.20;;;;;;5031987;28;20200;-45
2023/06/14 04:20:56;;;;;;;2.28;1.20;;;15.90;61.10;;;;;;5029216;28;20670;-46
2023/06/14 04:23:28;;;;;;;1.25;0.95;;;15.90;61.10;;;;;;5030644;28;20246;-45
2023/06/14 04:26:02;;;;;;;1.27;1.02;;;15.90;61.00;;;;;;5031022;28;20216;-45
2023/06/14 04:28:37;;;;;;;1.50;1.00;;;15.90;60.90;;;;;;5030959;28;20214;-44
2023/06/14 04:31:08;;;;;;;2.47;1.20;;;15.90;60.80;;;;;;5031511;28;20204;-46
2023/06/14 04:33:43;;;;;;;2.10;1.20;;;16.00;60.80;;;;;;5031856;28;20204;-44
2023/06/14 04:36:14;;;;;;;2.25;1.20;;;16.00;60.90;;;;;;5031497;28;20219;-46
2023/06/14 04:38:44;;;;;;;1.33;1.08;;;16.00;61.00;;;;;;5030777;28;20242;-45
2023/06/14 04:41:19;;;;;;;1.70;0.90;;;16.00;61.00;;;;;;5031599;28;20644;-44
2023/06/14 04:43:49;;;;;;;1.48;1.10;;;16.00;61.70;;;;;;5032112;28;20659;-44
2023/06/14 04:46:20;;;;;;;1.85;1.30;;;16.00;60.90;;;;;;5031033;28;20211;-45
2023/06/14 04:48:51;;;;;;;1.50;1.20;;;16.00;60.80;;;;;;5031182;28;20227;-44
2023/06/14 04:51:29;;;;;;;1.27;1.00;;;16.00;60.90;;;;;;5031411;28;20199;-47
2023/06/14 04:54:01;;;;;;;2.80;1.48;;;16.00;60.70;;;;;;5031325;28;20207;-47
2023/06/14 04:56:33;;;;;;;1.98;1.40;;;16.00;60.80;;;;;;5031536;28;20557;-45
2023/06/14 04:59:04;;;;;;;2.25;1.20;;;16.00;60.80;;;;;;5031496;28;20200;-47
2023/06/14 05:01:35;;;;;;;1.83;1.25;;;16.00;60.70;;;;;;5031680;28;20196;-45
2023/06/14 05:04:06;;;;;;;4.40;2.13;;;16.00;60.70;;;;;;5031618;28;20203;-46
2023/06/14 05:06:36;;;;;;;2.28;1.50;;;16.00;60.60;;;;;;5030500;28;20222;-47
2023/06/14 05:09:07;;;;;;;1.75;1.40;;;16.00;60.60;;;;;;5031315;28;20235;-47
2023/06/14 05:11:40;;;;;;;1.70;1.50;;;16.00;60.50;;;;;;5031419;28;20563;-44
2023/06/14 05:14:10;;;;;;;1.52;1.42;;;16.00;60.50;;;;;;5031254;28;20610;-47
2023/06/14 05:16:41;;;;;;;2.13;1.88;;;15.90;60.30;;;;;;5031120;28;20216;-45
2023/06/14 05:19:12;;;;;;;2.47;1.80;;;15.90;60.30;;;;;;5031040;28;20208;-45
2023/06/14 05:21:43;;;;;;;2.05;1.83;;;15.90;60.20;;;;;;5030962;28;20203;-47
2023/06/14 05:24:13;;;;;;;2.08;1.63;;;15.90;60.10;;;;;;5031500;28;20208;-46
2023/06/14 05:26:46;;;;;;;1.98;1.60;;;15.90;60.10;;;;;;5029204;28;20222;-50
2023/06/14 05:29:16;;;;;;;3.30;1.85;;;15.90;60.10;;;;;;5029300;28;20584;-44
2023/06/14 05:31:47;;;;;;;2.22;1.63;;;15.90;60.10;;;;;;5031067;28;20204;-49
2023/06/14 05:34:18;;;;;;;2.03;1.67;;;15.90;60.10;;;;;;5030634;28;20196;-46
2023/06/14 05:36:48;;;;;;;3.08;1.60;;;15.90;60.10;;;;;;5029032;28;20216;-46
2023/06/14 05:39:19;;;;;;;2.70;2.10;;;15.90;60.10;;;;;;5029219;28;20203;-45
2023/06/14 05:41:52;;;;;;;2.72;1.73;;;15.90;60.10;;;;;;5034687;28;20207;-47
2023/06/14 05:44:22;;;;;;;2.50;1.80;;;15.90;60.00;;;;;;5034770;28;20651;-45
2023/06/14 05:46:53;;;;;;;2.17;1.75;;;15.90;60.00;;;;;;5034678;28;20220;-49
2023/06/14 05:49:23;;;;;;;2.85;1.85;;;15.80;60.00;;;;;;5034450;28;20231;-45
2023/06/14 05:51:54;;;;;;;2.42;1.65;;;15.80;60.00;;;;;;5034722;28;20196;-45
2023/06/14 05:54:25;;;;;;;2.28;1.80;;;15.80;60.00;;;;;;5034803;28;20196;-49
2023/06/14 05:57:01;;;;;;;1.55;1.45;;;15.80;60.00;;;;;;5034677;28;20220;-47
2023/06/14 05:59:31;;;;;;;1.70;1.60;;;15.80;60.00;;;;;;5034592;28;20715;-47
2023/06/14 06:02:02;;;;;;;2.45;1.60;;;15.70;59.90;;;;;;5034768;28;20200;-46
2023/06/14 06:04:33;;;;;;;5.35;1.75;;;15.70;59.80;;;;;;5034132;28;20207;-49
2023/06/14 06:07:03;;;;;;;1.98;1.80;;;15.70;59.90;;;;;;5034375;28;20227;-45
2023/06/14 06:09:34;;;;;;;5.88;2.17;;;15.70;60.00;;;;;;5034297;28;20235;-48
2023/06/14 06:12:08;;;;;;;4.20;2.33;;;15.70;60.10;;;;;;5034336;28;20200;-47
2023/06/14 06:14:39;;;;;;;3.53;2.05;;;15.70;60.10;;;;;;5033546;28;20199;-44
2023/06/14 06:17:10;;;;;;;3.03;2.00;;;15.70;60.20;;;;;;5034018;28;20220;-44
2023/06/14 06:19:40;;;;;;;3.35;1.88;;;15.70;60.00;;;;;;5033988;28;20204;-46
2023/06/14 06:22:11;;;;;;;2.78;1.90;;;15.70;59.90;;;;;;5034093;28;20209;-44
2023/06/14 06:24:42;;;;;;;2.05;1.85;;;15.70;59.90;;;;;;5034050;28;20203;-48
2023/06/14 06:27:14;;;;;;;1.90;1.80;;;15.70;59.90;;;;;;5033903;28;20615;-46
2023/06/14 06:29:46;;;;;;;3.25;2.00;;;15.70;59.90;;;;;;5033975;28;20228;-46
2023/06/14 06:32:16;;;;;;;2.55;1.95;;;15.70;59.90;;;;;;5033873;28;20603;-45
2023/06/14 06:34:48;;;;;;;4.53;1.95;;;15.60;59.90;;;;;;5034316;28;20199;-48
2023/06/14 06:37:18;;;;;;;1.98;1.67;;;15.70;59.90;;;;;;5033795;28;20315;-46
2023/06/14 06:39:49;;;;;;;3.35;1.70;;;15.60;59.90;;;;;;5032905;28;20196;-45
2023/06/14 06:42:22;;;;;;;2.17;1.77;;;15.60;59.80;;;;;;5034117;28;20287;-45
2023/06/14 06:44:52;;;;;;;2.10;1.65;;;15.60;59.70;;;;;;5033913;28;20215;-44
2023/06/14 06:47:23;;;;;;;2.65;1.80;;;15.60;59.70;;;;;;5033814;28;20220;-45
2023/06/14 06:49:54;;;;;;;3.42;2.03;;;15.60;59.70;;;;;;5033952;28;20227;-44
2023/06/14 06:52:24;;;;;;;2.35;1.90;;;15.60;59.70;;;;;;5032585;28;20667;-45
2023/06/14 06:54:56;;;;;;;3.00;1.90;;;15.60;59.60;;;;;;5033343;28;20200;-45
2023/06/14 06:57:28;;;;;;;2.20;1.98;;;15.50;59.60;;;;;;5033562;28;20314;-46
2023/06/14 06:59:59;;;;;;;3.33;2.08;;;15.50;59.60;;;;;;5017437;28;20280;-47
2023/06/14 07:02:30;;;;;;;2.40;1.80;;;15.50;59.60;;;;;;5013753;28;20201;-46
2023/06/14 07:05:01;;;;;;;2.55;2.00;;;15.50;59.60;;;;;;5013925;28;20193;-45
2023/06/14 07:07:32;;;;;;;2.90;1.90;;;15.50;59.60;;;;;;5012959;28;20228;-45
2023/06/14 07:10:04;;;;;;;3.63;2.22;;;15.50;59.60;;;;;;5031084;28;20232;-46
2023/06/14 07:12:39;;;;;;;3.13;2.00;;;15.50;59.60;;;;;;5033208;28;20204;-45
2023/06/14 07:15:10;;;;;;;3.60;2.00;;;15.40;59.50;;;;;;5033157;28;20202;-44
2023/06/14 07:17:41;;;;;;;3.13;2.25;;;15.40;59.50;;;;;;5033288;28;20303;-45
2023/06/14 07:20:13;;;;;;;4.47;2.42;;;15.40;59.50;;;;;;5033277;28;20200;-46
2023/06/14 07:22:44;;;;;;;2.85;2.50;;;15.40;59.50;;;;;;5032469;28;20200;-45
2023/06/14 07:25:15;;;;;;;3.78;2.65;;;15.40;59.50;;;;;;5032673;28;20284;-44
2023/06/14 07:27:49;;;;;;;3.17;2.55;;;15.40;59.50;;;;;;5032968;28;20212;-44
2023/06/14 07:30:20;;;;;;;5.28;3.28;;;15.30;59.50;;;;;;5032919;28;20233;-45
2023/06/14 07:32:50;;;;;;;5.97;3.05;;;15.30;59.50;;;;;;5033318;28;20200;-44
2023/06/14 07:35:21;;;;;;;4.45;3.05;;;15.30;59.50;;;;;;5032872;28;20205;-44
2023/06/14 07:37:51;;;;;;;4.38;2.90;;;15.30;59.50;;;;;;5032475;28;20184;-44
2023/06/14 07:40:22;;;;;;;4.70;3.20;;;15.30;59.50;;;;;;5013003;28;20197;-44
2023/06/14 07:42:55;;;;;;;4.25;3.25;;;15.30;59.40;;;;;;5030454;28;20196;-44
2023/06/14 07:45:25;;;;;;;4.68;2.90;;;15.30;59.50;;;;;;5032621;28;20203;-44
2023/06/14 07:47:56;;;;;;;3.10;2.80;;;15.30;59.50;;;;;;5032045;28;20644;-46
2023/06/14 07:50:27;;;;;;;3.72;2.75;;;15.30;59.50;;;;;;5031675;28;20259;-44
2023/06/14 07:52:57;;;;;;;3.58;3.08;;;15.20;59.40;;;;;;5032167;28;20258;-47
2023/06/14 07:55:28;;;;;;;4.47;2.92;;;15.20;59.40;;;;;;5031505;28;20195;-44
2023/06/14 07:58:00;;;;;;;6.93;3.20;;;15.20;59.40;;;;;;5032460;28;20203;-46
2023/06/14 08:00:31;;;;;;;3.20;2.60;;;15.20;59.40;;;;;;5032321;28;20547;-44
2023/06/14 08:03:02;;;;;;;3.60;2.92;;;15.20;59.40;;;;;;5032148;28;20581;-45
2023/06/14 08:05:32;;;;;;;5.05;3.22;;;15.10;59.40;;;;;;5031483;28;20200;-44
2023/06/14 08:08:03;;;;;;;4.05;3.13;;;15.10;59.40;;;;;;5031843;28;20219;-44
2023/06/14 08:10:34;;;;;;;4.63;3.13;;;15.10;59.40;;;;;;5031747;28;20613;-45
2023/06/14 08:13:09;;;;;;;4.65;3.40;;;15.10;59.40;;;;;;5032126;28;20452;-44
2023/06/14 08:15:39;;;;;;;5.97;3.80;;;15.10;59.40;;;;;;5032404;28;20192;-44
2023/06/14 08:18:10;;;;;;;4.78;3.42;;;15.10;59.30;;;;;;5032195;28;20196;-46
2023/06/14 08:20:40;;;;;;;4.78;3.63;;;15.10;59.40;;;;;;5031330;28;20599;-44
2023/06/14 08:23:11;;;;;;;4.63;3.25;;;15.10;59.40;;;;;;5031619;28;20250;-47
2023/06/14 08:25:41;;;;;;;4.65;3.55;;;15.10;59.40;;;;;;5031596;28;20203;-45
2023/06/14 08:28:14;;;;;;;5.45;3.83;;;15.10;59.40;;;;;;5031964;28;20200;-46
2023/06/14 08:30:45;;;;;;;3.47;3.13;;;15.10;59.40;;;;;;5031952;28;20579;-44
2023/06/14 08:33:22;;;;;;;4.93;3.40;;;15.10;59.40;;;;;;5032120;28;20204;-44
2023/06/14 08:35:52;;;;;;;3.88;3.22;;;15.10;59.40;;;;;;5031356;28;20773;-44
2023/06/14 08:38:23;;;;;;;3.88;3.10;;;15.00;59.40;;;;;;5031677;28;20251;-44
2023/06/14 08:40:55;;;;;;;3.20;2.85;;;15.00;59.40;;;;;;5032113;28;20254;-44
2023/06/14 08:43:27;;;;;;;4.20;3.67;;;15.00;59.40;;;;;;5030921;28;20227;-44
2023/06/14 08:46:03;;;;;;;5.82;4.00;;;15.00;59.40;;;;;;5031359;28;20224;-44
2023/06/14 08:48:34;;;;;;;3.42;3.13;;;15.00;59.40;;;;;;5031647;28;20200;-44
2023/06/14 08:51:05;;;;;;;6.93;3.65;;;15.00;59.30;;;;;;5030909;28;20227;-44
2023/06/14 08:53:36;;;;;;;4.03;3.40;;;15.00;59.40;;;;;;5031771;28;20588;-44
2023/06/14 08:56:07;;;;;;;4.95;3.78;;;15.00;59.50;;;;;;5031191;28;20407;-46
2023/06/14 08:58:43;;;;;;;4.05;3.10;;;15.00;59.50;;;;;;5031531;28;20204;-44
2023/06/14 09:01:16;;;;;;;4.60;3.40;;;15.00;59.50;;;;;;5031505;28;20664;-46
2023/06/14 09:03:48;;;;;;;5.38;3.38;;;15.00;59.50;;;;;;5031595;28;20223;-44
2023/06/14 09:06:19;;;;;;;5.20;3.10;;;15.00;59.50;;;;;;5027573;28;20212;-44
2023/06/14 09:08:50;;;;;;;4.85;3.45;;;15.00;59.50;;;;;;5040470;28;20199;-44
2023/06/14 09:11:23;;;;;;;5.53;3.45;;;15.00;59.50;;;;;;5044129;28;20553;-44
2023/06/14 09:13:55;;;;;;;3.42;3.10;;;14.90;59.40;;;;;;5041530;28;20199;-44
2023/06/14 09:16:26;;;;;;;4.45;3.03;;;14.90;59.40;;;;;;5046383;28;20216;-44
2023/06/14 09:18:57;;;;;;;4.32;3.17;;;15.00;59.50;;;;;;5039164;28;20207;-44
2023/06/14 09:21:28;;;;;;;4.85;3.28;;;15.00;59.40;;;;;;5046989;28;20261;-44
2023/06/14 09:23:58;;;;;;;4.20;3.20;;;15.00;60.00;;;;;;5053663;28;20249;-44
2023/06/14 09:26:29;;;;;;;3.65;3.15;;;14.90;60.10;;;;;;5043833;28;20228;-44
2023/06/14 09:29:02;;;;;;;3.72;3.30;;;15.00;60.00;;;;;;5042062;28;20253;-44
2023/06/14 09:31:32;;;;;;;4.63;3.28;;;15.00;59.90;;;;;;5046803;28;20226;-44
2023/06/14 09:34:06;;;;;;;5.80;3.03;;;15.00;59.80;;;;;;5053154;28;20207;-44
2023/06/14 09:36:37;;;;;;;3.33;2.65;;;15.00;59.80;;;;;;5046975;28;20219;-44
2023/06/14 09:39:08;;;;;;;4.57;2.90;;;15.00;59.70;;;;;;5048146;28;20249;-44
2023/06/14 09:41:39;;;;;;;4.13;3.05;;;15.00;59.70;;;;;;5040239;28;20189;-44
2023/06/14 09:44:13;;;;;;;3.28;2.75;;;15.00;59.70;;;;;;5053283;28;20261;-44
2023/06/14 09:46:43;;;;;;;4.55;3.70;;;15.00;59.70;;;;;;5040112;28;20216;-44
2023/06/14 09:49:14;;;;;;;5.43;3.60;;;15.00;59.70;;;;;;5052838;28;20682;-45
2023/06/14 09:51:47;;;;;;;4.32;2.97;;;15.00;59.70;;;;;;5047799;28;20224;-44
2023/06/14 09:54:22;;;;;;;4.20;3.05;;;15.00;59.70;;;;;;5053498;28;20212;-46
2023/06/14 09:56:55;;;;;;;4.03;2.75;;;14.90;59.60;;;;;;5048481;28;20214;-44
2023/06/14 09:59:33;;;;;;;3.88;2.92;;;14.90;59.60;;;;;;5044666;28;20203;-44
2023/06/14 10:02:12;;;;;;;3.60;2.88;;;14.90;59.60;;;;;;5038470;28;20195;-44
2023/06/14 10:04:47;;;;;;;3.75;2.80;;;14.90;59.60;;;;;;5052359;28;20195;-44
2023/06/14 10:07:21;;;;;;;3.03;2.72;;;14.90;59.60;;;;;;5049255;28;20218;-45
2023/06/14 10:09:53;;;;;;;5.15;2.97;;;14.90;59.60;;;;;;5047738;28;20246;-45
2023/06/14 10:12:23;;;;;;;3.17;2.60;;;14.90;59.50;;;;;;5049378;28;20702;-44
2023/06/14 10:14:57;;;;;;;2.47;2.28;;;14.90;59.50;;;;;;5048996;28;20249;-44
2023/06/14 10:17:36;;;;;;;4.38;2.95;;;14.90;60.10;;;;;;5040883;28;20278;-44
2023/06/14 10:20:28;;;;;;;3.80;2.70;;;14.80;59.50;;;;;;5052320;28;20203;-45
2023/06/14 10:23:06;;;;;;;3.35;2.40;;;14.80;59.50;;;;;;5049461;28;20199;-44
2023/06/14 10:25:37;;;;;;;3.28;2.92;;;14.80;59.50;;;;;;5051720;28;20567;-44
2023/06/14 10:28:18;;;;;;;2.70;2.50;;;14.80;59.40;;;;;;5049439;28;20257;-47
2023/06/14 10:31:09;;;;;;;3.05;2.50;;;14.80;59.50;;;;;;5052210;28;20368;-49
2023/06/14 10:33:51;;;;;;;3.10;2.45;;;14.80;59.40;;;;;;5049038;28;20246;-44
2023/06/14 10:36:34;;;;;;;2.60;2.20;;;14.80;59.40;;;;;;5051089;28;20229;-46
2023/06/14 10:39:08;;;;;;;2.97;2.42;;;14.80;59.50;;;;;;5034870;28;20199;-44
2023/06/14 10:41:42;;;;;;;3.20;2.60;;;14.80;59.40;;;;;;5031025;28;20229;-44
2023/06/14 10:44:46;;;;;;;3.38;2.60;;;14.80;59.40;;;;;;5032931;28;20188;-46
2023/06/14 10:47:29;;;;;;;3.28;2.22;;;14.80;59.50;;;;;;5033924;28;20301;-47
2023/06/14 10:50:06;;;;;;;3.47;2.50;;;14.70;59.40;;;;;;5032983;28;20254;-45
2023/06/14 10:52:40;;;;;;;2.97;2.28;;;14.70;59.40;;;;;;5033353;28;20223;-46
2023/06/14 10:55:14;;;;;;;3.80;2.17;;;14.70;59.40;;;;;;5033409;28;20200;-45
2023/06/14 10:57:47;;;;;;;3.55;2.28;;;14.70;59.40;;;;;;5033435;28;20262;-44
2023/06/14 11:00:21;;;;;;;3.30;2.58;;;14.70;59.40;;;;;;5033548;28;20369;-45
2023/06/14 11:03:33;;;;;;;3.45;2.60;;;14.70;59.40;;;;;;5033250;28;20287;-44
2023/06/14 11:06:16;;;;;;;3.35;2.40;;;14.70;59.40;;;;;;5013761;28;20216;-45
2023/06/14 11:09:23;;;;;;;3.85;2.35;;;14.70;59.40;;;;;;5033362;28;20212;-44
2023/06/14 11:11:56;;;;;;;2.72;2.47;;;14.70;59.40;;;;;;5033141;28;20227;-45
2023/06/14 11:14:27;;;;;;;2.75;2.20;;;14.70;59.40;;;;;;5033029;28;20200;-44
2023/06/14 11:16:57;;;;;;;2.20;2.00;;;14.70;59.40;;;;;;5032874;28;20223;-44
2023/06/14 11:19:29;;;;;;;3.55;2.00;;;14.60;59.40;;;;;;5033326;28;20258;-43
2023/06/14 11:22:03;;;;;;;2.58;2.22;;;14.60;59.40;;;;;;5033158;28;20203;-44
2023/06/14 11:24:35;;;;;;;4.57;2.97;;;14.60;59.40;;;;;;5032481;28;20196;-45
2023/06/14 11:27:06;;;;;;;2.83;2.25;;;14.60;59.40;;;;;;5013107;28;20209;-44
2023/06/14 11:29:36;;;;;;;2.95;2.17;;;14.70;59.40;;;;;;5013388;28;20331;-45
2023/06/14 11:32:13;;;;;;;2.90;2.50;;;14.60;59.40;;;;;;5013289;28;20232;-46
2023/06/14 11:34:43;;;;;;;2.45;2.22;;;14.60;59.30;;;;;;5013325;28;20192;-47
2023/06/14 11:37:16;;;;;;;2.30;2.10;;;14.60;59.40;;;;;;5012521;28;20220;-45
2023/06/14 11:39:48;;;;;;;2.60;2.20;;;14.60;59.30;;;;;;5028391;28;20204;-48
2023/06/14 11:42:19;;;;;;;2.47;1.98;;;14.60;59.30;;;;;;5032306;28;20200;-45
2023/06/14 11:44:50;;;;;;;2.95;2.42;;;14.60;59.30;;;;;;5032808;28;20204;-45
2023/06/14 11:47:22;;;;;;;2.17;1.98;;;14.60;59.30;;;;;;5032649;28;20266;-45
2023/06/14 11:49:53;;;;;;;2.20;2.00;;;14.60;59.40;;;;;;5032823;28;20196;-44
2023/06/14 11:52:25;;;;;;;2.55;2.20;;;14.60;59.40;;;;;;5032873;28;20247;-45
2023/06/14 11:54:57;;;;;;;1.80;1.60;;;14.60;59.40;;;;;;5032639;28;20203;-46
2023/06/14 11:57:28;;;;;;;2.65;2.03;;;14.60;59.40;;;;;;5032678;28;20582;-44
2023/06/14 11:59:59;;;;;;;2.50;1.95;;;14.60;59.40;;;;;;5032584;28;20204;-45
2023/06/14 12:02:33;;;;;;;2.20;1.90;;;14.60;59.40;;;;;;5032315;28;20277;-44
2023/06/14 12:05:09;;;;;;;3.33;2.20;;;14.50;59.30;;;;;;5032127;28;20200;-43
2023/06/14 12:07:45;;;;;;;2.50;2.08;;;14.50;59.30;;;;;;5032177;28;20586;-44
2023/06/14 12:10:16;;;;;;;3.00;2.17;;;14.50;59.30;;;;;;5032352;28;20395;-46
2023/06/14 12:12:47;;;;;;;3.00;1.80;;;14.50;59.30;;;;;;5032368;28;20714;-46
2023/06/14 12:15:19;;;;;;;2.40;1.80;;;14.50;59.30;;;;;;5032402;28;20204;-44
2023/06/14 12:17:50;;;;;;;1.98;1.77;;;14.50;59.30;;;;;;5031898;28;20208;-44
2023/06/14 12:20:22;;;;;;;2.55;1.92;;;14.50;59.30;;;;;;5032278;28;20192;-46
2023/06/14 12:22:58;;;;;;;2.33;1.83;;;14.50;59.30;;;;;;5032375;28;20623;-44
2023/06/14 12:25:30;;;;;;;1.85;1.52;;;14.50;59.30;;;;;;5032142;28;20196;-43
2023/06/14 12:28:02;;;;;;;2.20;2.00;;;14.50;59.30;;;;;;5032151;28;20202;-44
2023/06/14 12:30:33;;;;;;;2.35;2.10;;;14.50;59.30;;;;;;5031959;28;20200;-44
2023/06/14 12:33:04;;;;;;;2.08;1.70;;;14.50;59.30;;;;;;5031817;28;20224;-45
2023/06/14 12:35:35;;;;;;;1.95;1.63;;;14.50;59.30;;;;;;5031954;28;20203;-45
2023/06/14 12:38:07;;;;;;;2.15;1.92;;;14.50;59.30;;;;;;5031611;28;20678;-46
2023/06/14 12:40:39;;;;;;;2.05;1.60;;;14.50;59.30;;;;;;5032056;28;20200;-44
2023/06/14 12:43:09;;;;;;;2.40;1.95;;;14.50;59.30;;;;;;5032018;28;20196;-43
2023/06/14 12:45:40;;;;;;;2.60;1.67;;;14.50;59.30;;;;;;5031615;28;20192;-45
2023/06/14 12:48:11;;;;;;;2.03;1.83;;;14.50;59.30;;;;;;5031791;28;20601;-43
2023/06/14 12:50:41;;;;;;;1.73;1.60;;;14.50;59.30;;;;;;5031379;28;20200;-44
2023/06/14 12:53:14;;;;;;;2.17;1.60;;;14.50;59.30;;;;;;5031012;28;20227;-44
2023/06/14 12:55:45;;;;;;;2.90;1.98;;;14.50;59.30;;;;;;5031045;28;20203;-45
2023/06/14 12:58:16;;;;;;;2.20;1.80;;;14.50;59.30;;;;;;5032025;28;20283;-43
2023/06/14 13:00:47;;;;;;;2.28;1.73;;;14.50;59.30;;;;;;5031484;28;20206;-43
2023/06/14 13:03:18;;;;;;;2.03;1.67;;;14.50;59.30;;;;;;5031838;28;20679;-43
2023/06/14 13:05:48;;;;;;;2.03;1.50;;;14.50;59.30;;;;;;5031576;28;20216;-44
2023/06/14 13:08:22;;;;;;;2.60;1.50;;;14.40;59.20;;;;;;5031714;28;20614;-44
2023/06/14 13:10:52;;;;;;;2.00;1.80;;;14.40;59.20;;;;;;5031355;28;20196;-44
2023/06/14 13:13:23;;;;;;;2.10;1.70;;;14.40;59.20;;;;;;5031641;28;20228;-43